sensor_id;sensor_type;location;lat;lon;timestamp;temperature;humidity
28336;DHT22;15592;53.656;7.276;2022-12-29T00:02:14;9.30;99.90
28336;DHT22;15592;53.656;7.276;2022-12-29T00:04:40;9.30;99.90
28336;DHT22;15592;53.656;7.276;2022-12-29T00:07:06;9.30;99.90
28336;DHT22;15592;53.656;7.276;2022-12-29T00:09:32;9.30;99.90
28336;DHT22;15592;53.656;7.276;2022-12-29T00:11:58;9.30;99.90
28336;DHT22;15592;53.656;7.276;2022-12-29T00:14:23;9.40;99.90
28336;DHT22;15592;53.656;7.276;2022-12-29T00:17:07;9.40;99.90
28336;DHT22;15592;53.656;7.276;2022-12-29T00:19:33;9.40;99.90
28336;DHT22;15592;53.656;7.276;2022-12-29T00:22:17;9.40;99.90
28336;DHT22;15592;53.656;7.276;2022-12-29T00:25:03;9.50;99.90
28336;DHT22;15592;53.656;7.276;2022-12-29T00:27:47;9.50;99.90
28336;DHT22;15592;53.656;7.276;2022-12-29T00:30:31;9.50;99.90
28336;DHT22;15592;53.656;7.276;2022-12-29T00:33:20;9.50;99.90
28336;DHT22;15592;53.656;7.276;2022-12-29T00:38:38;9.50;99.90
28336;DHT22;15592;53.656;7.276;2022-12-29T00:41:24;9.50;99.90
28336;DHT22;15592;53.656;7.276;2022-12-29T00:44:09;9.60;99.90
28336;DHT22;15592;53.656;7.276;2022-12-29T00:46:40;9.60;99.90
28336;DHT22;15592;53.656;7.276;2022-12-29T00:49:07;9.60;99.90
28336;DHT22;15592;53.656;7.276;2022-12-29T00:51:52;9.60;99.90
28336;DHT22;15592;53.656;7.276;2022-12-29T00:54:19;9.60;99.90
28336;DHT22;15592;53.656;7.276;2022-12-29T00:56:51;9.60;99.90
28336;DHT22;15592;53.656;7.276;2022-12-29T00:59:18;9.70;99.90
28336;DHT22;15592;53.656;7.276;2022-12-29T01:01:44;9.70;99.90
28336;DHT22;15592;53.656;7.276;2022-12-29T01:04:11;9.70;99.90
28336;DHT22;15592;53.656;7.276;2022-12-29T01:06:40;9.70;99.90
28336;DHT22;15592;53.656;7.276;2022-12-29T01:09:07;9.70;99.90
28336;DHT22;15592;53.656;7.276;2022-12-29T01:11:51;9.70;99.90
28336;DHT22;15592;53.656;7.276;2022-12-29T01:14:18;9.70;99.90
28336;DHT22;15592;53.656;7.276;2022-12-29T01:16:44;9.70;99.90
28336;DHT22;15592;53.656;7.276;2022-12-29T01:19:11;9.70;99.90
28336;DHT22;15592;53.656;7.276;2022-12-29T01:21:36;9.70;99.90
28336;DHT22;15592;53.656;7.276;2022-12-29T01:24:02;9.70;99.90
28336;DHT22;15592;53.656;7.276;2022-12-29T01:26:28;9.70;99.90
28336;DHT22;15592;53.656;7.276;2022-12-29T01:28:53;9.70;99.90
28336;DHT22;15592;53.656;7.276;2022-12-29T01:31:19;9.70;99.90
28336;DHT22;15592;53.656;7.276;2022-12-29T01:33:45;9.70;99.90
28336;DHT22;15592;53.656;7.276;2022-12-29T01:36:13;9.70;99.90
28336;DHT22;15592;53.656;7.276;2022-12-29T01:38:39;9.70;99.90
28336;DHT22;15592;53.656;7.276;2022-12-29T01:41:06;9.70;99.90
28336;DHT22;15592;53.656;7.276;2022-12-29T01:49:09;9.80;99.90
28336;DHT22;15592;53.656;7.276;2022-12-29T01:52:03;9.80;99.90
28336;DHT22;15592;53.656;7.276;2022-12-29T01:54:34;9.80;99.90
28336;DHT22;15592;53.656;7.276;2022-12-29T01:57:05;9.80;99.90
28336;DHT22;15592;53.656;7.276;2022-12-29T01:59:36;9.80;99.90
28336;DHT22;15592;53.656;7.276;2022-12-29T02:02:04;9.80;99.90
28336;DHT22;15592;53.656;7.276;2022-12-29T02:04:31;9.90;99.90
28336;DHT22;15592;53.656;7.276;2022-12-29T02:07:01;9.90;99.90
28336;DHT22;15592;53.656;7.276;2022-12-29T02:09:28;9.90;99.90
28336;DHT22;15592;53.656;7.276;2022-12-29T02:11:54;9.90;99.90
28336;DHT22;15592;53.656;7.276;2022-12-29T02:14:20;10.00;99.90
28336;DHT22;15592;53.656;7.276;2022-12-29T02:17:24;10.00;99.90
28336;DHT22;15592;53.656;7.276;2022-12-29T02:26:26;10.00;99.90
28336;DHT22;15592;53.656;7.276;2022-12-29T02:34:44;10.00;99.90
28336;DHT22;15592;53.656;7.276;2022-12-29T02:45:51;10.00;99.90
28336;DHT22;15592;53.656;7.276;2022-12-29T02:48:22;10.00;99.90
28336;DHT22;15592;53.656;7.276;2022-12-29T02:51:03;10.00;99.90
28336;DHT22;15592;53.656;7.276;2022-12-29T02:53:32;9.90;99.90
28336;DHT22;15592;53.656;7.276;2022-12-29T02:56:17;9.90;99.90
28336;DHT22;15592;53.656;7.276;2022-12-29T02:58:43;9.90;99.90
28336;DHT22;15592;53.656;7.276;2022-12-29T03:01:40;10.00;99.90
28336;DHT22;15592;53.656;7.276;2022-12-29T03:04:54;9.90;99.90
28336;DHT22;15592;53.656;7.276;2022-12-29T03:24:20;9.80;99.90
28336;DHT22;15592;53.656;7.276;2022-12-29T03:26:47;9.80;99.90
28336;DHT22;15592;53.656;7.276;2022-12-29T03:29:17;9.80;99.90
28336;DHT22;15592;53.656;7.276;2022-12-29T03:31:44;9.70;99.90
28336;DHT22;15592;53.656;7.276;2022-12-29T03:34:12;9.50;99.90
28336;DHT22;15592;53.656;7.276;2022-12-29T03:36:44;9.20;99.90
28336;DHT22;15592;53.656;7.276;2022-12-29T03:39:13;9.10;99.90
28336;DHT22;15592;53.656;7.276;2022-12-29T03:41:41;9.00;99.90
28336;DHT22;15592;53.656;7.276;2022-12-29T03:44:08;9.10;99.90
28336;DHT22;15592;53.656;7.276;2022-12-29T03:46:35;9.10;99.90
28336;DHT22;15592;53.656;7.276;2022-12-29T03:49:00;9.10;99.90
28336;DHT22;15592;53.656;7.276;2022-12-29T03:51:26;9.00;99.90
28336;DHT22;15592;53.656;7.276;2022-12-29T03:53:51;9.00;99.90
28336;DHT22;15592;53.656;7.276;2022-12-29T03:56:17;8.90;99.90
28336;DHT22;15592;53.656;7.276;2022-12-29T03:58:42;8.90;99.90
28336;DHT22;15592;53.656;7.276;2022-12-29T04:01:08;9.00;99.90
28336;DHT22;15592;53.656;7.276;2022-12-29T04:03:34;9.20;99.90
28336;DHT22;15592;53.656;7.276;2022-12-29T04:05:59;9.20;99.90
28336;DHT22;15592;53.656;7.276;2022-12-29T04:08:25;9.30;99.90
28336;DHT22;15592;53.656;7.276;2022-12-29T04:10:50;9.40;99.90
28336;DHT22;15592;53.656;7.276;2022-12-29T04:13:16;9.40;99.90
28336;DHT22;15592;53.656;7.276;2022-12-29T04:15:45;9.50;99.90
28336;DHT22;15592;53.656;7.276;2022-12-29T04:18:11;9.50;99.90
28336;DHT22;15592;53.656;7.276;2022-12-29T04:20:37;9.50;99.90
28336;DHT22;15592;53.656;7.276;2022-12-29T04:23:21;9.50;99.90
28336;DHT22;15592;53.656;7.276;2022-12-29T04:25:46;9.50;99.90
28336;DHT22;15592;53.656;7.276;2022-12-29T04:28:15;9.40;99.90
28336;DHT22;15592;53.656;7.276;2022-12-29T04:30:43;9.40;99.90
28336;DHT22;15592;53.656;7.276;2022-12-29T04:33:08;9.40;99.90
28336;DHT22;15592;53.656;7.276;2022-12-29T04:35:34;9.40;99.90
28336;DHT22;15592;53.656;7.276;2022-12-29T04:38:00;9.30;99.90
28336;DHT22;15592;53.656;7.276;2022-12-29T04:40:25;9.30;99.90
28336;DHT22;15592;53.656;7.276;2022-12-29T04:42:51;9.30;99.90
28336;DHT22;15592;53.656;7.276;2022-12-29T04:45:17;9.30;99.90
28336;DHT22;15592;53.656;7.276;2022-12-29T04:47:42;9.30;99.90
28336;DHT22;15592;53.656;7.276;2022-12-29T04:50:08;9.30;99.90
28336;DHT22;15592;53.656;7.276;2022-12-29T04:52:34;9.30;99.90
28336;DHT22;15592;53.656;7.276;2022-12-29T04:55:00;9.30;99.90
28336;DHT22;15592;53.656;7.276;2022-12-29T04:57:26;9.20;99.90
28336;DHT22;15592;53.656;7.276;2022-12-29T04:59:52;9.20;99.90
28336;DHT22;15592;53.656;7.276;2022-12-29T05:02:18;9.30;99.90
28336;DHT22;15592;53.656;7.276;2022-12-29T05:04:44;9.40;99.90
28336;DHT22;15592;53.656;7.276;2022-12-29T05:07:09;9.40;99.90
28336;DHT22;15592;53.656;7.276;2022-12-29T05:09:35;9.40;99.90
28336;DHT22;15592;53.656;7.276;2022-12-29T05:12:00;9.40;99.90
28336;DHT22;15592;53.656;7.276;2022-12-29T05:14:26;9.50;99.90
28336;DHT22;15592;53.656;7.276;2022-12-29T05:16:52;9.50;99.90
28336;DHT22;15592;53.656;7.276;2022-12-29T05:19:18;9.50;99.90
28336;DHT22;15592;53.656;7.276;2022-12-29T05:21:43;9.60;99.90
28336;DHT22;15592;53.656;7.276;2022-12-29T05:24:09;9.60;99.90
28336;DHT22;15592;53.656;7.276;2022-12-29T05:26:35;9.50;99.90
28336;DHT22;15592;53.656;7.276;2022-12-29T05:29:00;9.50;99.90
28336;DHT22;15592;53.656;7.276;2022-12-29T05:31:26;9.50;99.90
28336;DHT22;15592;53.656;7.276;2022-12-29T05:33:52;9.40;99.90
28336;DHT22;15592;53.656;7.276;2022-12-29T05:36:18;9.40;99.90
28336;DHT22;15592;53.656;7.276;2022-12-29T05:38:44;9.30;99.90
28336;DHT22;15592;53.656;7.276;2022-12-29T05:41:09;9.30;99.90
28336;DHT22;15592;53.656;7.276;2022-12-29T05:43:35;9.20;99.90
28336;DHT22;15592;53.656;7.276;2022-12-29T05:46:01;9.20;99.90
28336;DHT22;15592;53.656;7.276;2022-12-29T05:48:27;9.10;99.90
28336;DHT22;15592;53.656;7.276;2022-12-29T05:50:53;9.10;99.90
28336;DHT22;15592;53.656;7.276;2022-12-29T05:53:18;9.00;99.90
28336;DHT22;15592;53.656;7.276;2022-12-29T05:55:46;9.00;99.90
28336;DHT22;15592;53.656;7.276;2022-12-29T05:58:13;9.00;99.90
28336;DHT22;15592;53.656;7.276;2022-12-29T06:00:38;9.00;99.90
28336;DHT22;15592;53.656;7.276;2022-12-29T06:03:04;9.00;99.90
28336;DHT22;15592;53.656;7.276;2022-12-29T06:05:30;9.00;99.90
28336;DHT22;15592;53.656;7.276;2022-12-29T06:07:55;9.00;99.90
28336;DHT22;15592;53.656;7.276;2022-12-29T06:10:21;9.00;99.90
28336;DHT22;15592;53.656;7.276;2022-12-29T06:12:46;9.00;99.90
28336;DHT22;15592;53.656;7.276;2022-12-29T06:15:12;8.90;99.90
28336;DHT22;15592;53.656;7.276;2022-12-29T06:17:39;9.00;99.90
28336;DHT22;15592;53.656;7.276;2022-12-29T06:20:05;8.90;99.90
28336;DHT22;15592;53.656;7.276;2022-12-29T06:22:30;8.90;99.90
28336;DHT22;15592;53.656;7.276;2022-12-29T06:24:56;8.90;99.90
28336;DHT22;15592;53.656;7.276;2022-12-29T06:27:22;8.90;99.90
28336;DHT22;15592;53.656;7.276;2022-12-29T06:29:47;8.90;99.90
28336;DHT22;15592;53.656;7.276;2022-12-29T06:32:13;8.90;99.90
28336;DHT22;15592;53.656;7.276;2022-12-29T06:34:38;8.90;99.90
28336;DHT22;15592;53.656;7.276;2022-12-29T06:37:04;8.90;99.90
28336;DHT22;15592;53.656;7.276;2022-12-29T06:39:30;8.90;99.90
28336;DHT22;15592;53.656;7.276;2022-12-29T06:41:55;8.90;99.90
28336;DHT22;15592;53.656;7.276;2022-12-29T06:44:21;8.90;99.90
28336;DHT22;15592;53.656;7.276;2022-12-29T06:46:47;8.90;99.90
28336;DHT22;15592;53.656;7.276;2022-12-29T06:49:13;9.00;99.90
28336;DHT22;15592;53.656;7.276;2022-12-29T06:51:39;8.90;99.90
28336;DHT22;15592;53.656;7.276;2022-12-29T06:54:05;8.90;99.90
28336;DHT22;15592;53.656;7.276;2022-12-29T06:56:31;8.90;99.90
28336;DHT22;15592;53.656;7.276;2022-12-29T06:58:56;8.90;99.90
28336;DHT22;15592;53.656;7.276;2022-12-29T07:01:22;8.90;99.90
28336;DHT22;15592;53.656;7.276;2022-12-29T07:03:48;8.90;99.90
28336;DHT22;15592;53.656;7.276;2022-12-29T07:06:13;8.90;99.90
28336;DHT22;15592;53.656;7.276;2022-12-29T07:08:39;8.90;99.90
28336;DHT22;15592;53.656;7.276;2022-12-29T07:11:05;8.80;99.90
28336;DHT22;15592;53.656;7.276;2022-12-29T07:13:31;8.80;99.90
28336;DHT22;15592;53.656;7.276;2022-12-29T07:15:56;8.80;99.90
28336;DHT22;15592;53.656;7.276;2022-12-29T07:18:22;8.80;99.90
28336;DHT22;15592;53.656;7.276;2022-12-29T07:20:47;8.80;99.90
28336;DHT22;15592;53.656;7.276;2022-12-29T07:23:13;8.80;99.90
28336;DHT22;15592;53.656;7.276;2022-12-29T07:25:39;8.80;99.90
28336;DHT22;15592;53.656;7.276;2022-12-29T07:28:06;8.80;99.90
28336;DHT22;15592;53.656;7.276;2022-12-29T07:30:32;8.70;99.90
28336;DHT22;15592;53.656;7.276;2022-12-29T07:32:58;8.70;99.90
28336;DHT22;15592;53.656;7.276;2022-12-29T07:35:24;8.70;99.90
28336;DHT22;15592;53.656;7.276;2022-12-29T07:37:49;8.70;99.90
28336;DHT22;15592;53.656;7.276;2022-12-29T07:40:15;8.70;99.90
28336;DHT22;15592;53.656;7.276;2022-12-29T07:42:41;8.70;99.90
28336;DHT22;15592;53.656;7.276;2022-12-29T07:45:07;8.70;99.90
28336;DHT22;15592;53.656;7.276;2022-12-29T07:47:34;8.70;99.90
28336;DHT22;15592;53.656;7.276;2022-12-29T07:50:00;8.70;99.90
28336;DHT22;15592;53.656;7.276;2022-12-29T07:52:25;8.70;99.90
28336;DHT22;15592;53.656;7.276;2022-12-29T07:54:51;8.70;99.90
28336;DHT22;15592;53.656;7.276;2022-12-29T07:57:16;8.70;99.90
28336;DHT22;15592;53.656;7.276;2022-12-29T07:59:42;8.70;99.90
28336;DHT22;15592;53.656;7.276;2022-12-29T08:02:10;8.70;99.90
28336;DHT22;15592;53.656;7.276;2022-12-29T08:04:36;8.70;99.90
28336;DHT22;15592;53.656;7.276;2022-12-29T08:07:02;8.70;99.90
28336;DHT22;15592;53.656;7.276;2022-12-29T08:09:27;8.80;99.90
28336;DHT22;15592;53.656;7.276;2022-12-29T08:11:53;8.80;99.90
28336;DHT22;15592;53.656;7.276;2022-12-29T08:14:19;8.80;99.90
28336;DHT22;15592;53.656;7.276;2022-12-29T08:16:45;8.90;99.90
28336;DHT22;15592;53.656;7.276;2022-12-29T08:19:11;8.90;99.90
28336;DHT22;15592;53.656;7.276;2022-12-29T08:21:37;8.80;99.90
28336;DHT22;15592;53.656;7.276;2022-12-29T08:24:03;8.80;99.90
28336;DHT22;15592;53.656;7.276;2022-12-29T08:26:29;8.90;99.90
28336;DHT22;15592;53.656;7.276;2022-12-29T08:28:54;8.90;99.90
28336;DHT22;15592;53.656;7.276;2022-12-29T08:31:21;9.00;99.90
28336;DHT22;15592;53.656;7.276;2022-12-29T08:33:47;9.00;99.90
28336;DHT22;15592;53.656;7.276;2022-12-29T08:36:12;9.00;99.90
28336;DHT22;15592;53.656;7.276;2022-12-29T08:38:38;9.00;99.90
28336;DHT22;15592;53.656;7.276;2022-12-29T08:41:04;9.10;99.90
28336;DHT22;15592;53.656;7.276;2022-12-29T08:43:29;9.10;99.90
28336;DHT22;15592;53.656;7.276;2022-12-29T08:45:55;9.10;99.90
28336;DHT22;15592;53.656;7.276;2022-12-29T08:48:21;9.10;99.90
28336;DHT22;15592;53.656;7.276;2022-12-29T08:50:48;9.10;99.90
28336;DHT22;15592;53.656;7.276;2022-12-29T08:53:13;9.10;99.90
28336;DHT22;15592;53.656;7.276;2022-12-29T08:55:39;9.10;99.90
28336;DHT22;15592;53.656;7.276;2022-12-29T08:58:05;9.10;99.90
28336;DHT22;15592;53.656;7.276;2022-12-29T09:00:31;9.10;99.90
28336;DHT22;15592;53.656;7.276;2022-12-29T09:02:57;9.10;99.90
28336;DHT22;15592;53.656;7.276;2022-12-29T09:05:22;9.10;99.90
28336;DHT22;15592;53.656;7.276;2022-12-29T09:07:48;9.20;99.90
28336;DHT22;15592;53.656;7.276;2022-12-29T09:10:13;9.10;99.90
28336;DHT22;15592;53.656;7.276;2022-12-29T09:12:39;9.20;99.90
28336;DHT22;15592;53.656;7.276;2022-12-29T09:15:06;9.20;99.90
28336;DHT22;15592;53.656;7.276;2022-12-29T09:17:31;9.20;99.90
28336;DHT22;15592;53.656;7.276;2022-12-29T09:20:08;9.10;99.90
28336;DHT22;15592;53.656;7.276;2022-12-29T09:22:35;9.10;99.90
28336;DHT22;15592;53.656;7.276;2022-12-29T09:25:01;9.10;99.90
28336;DHT22;15592;53.656;7.276;2022-12-29T09:27:26;9.10;99.90
28336;DHT22;15592;53.656;7.276;2022-12-29T09:29:52;9.10;99.90
28336;DHT22;15592;53.656;7.276;2022-12-29T09:32:17;9.20;99.90
28336;DHT22;15592;53.656;7.276;2022-12-29T09:34:43;9.10;99.90
28336;DHT22;15592;53.656;7.276;2022-12-29T09:37:09;9.10;99.90
28336;DHT22;15592;53.656;7.276;2022-12-29T09:39:34;9.00;99.90
28336;DHT22;15592;53.656;7.276;2022-12-29T09:47:05;8.90;99.90
28336;DHT22;15592;53.656;7.276;2022-12-29T09:49:43;8.90;99.90
28336;DHT22;15592;53.656;7.276;2022-12-29T09:53:09;8.90;99.90
28336;DHT22;15592;53.656;7.276;2022-12-29T09:55:37;8.80;99.90
28336;DHT22;15592;53.656;7.276;2022-12-29T09:58:10;8.80;99.90
28336;DHT22;15592;53.656;7.276;2022-12-29T10:03:19;8.90;99.90
28336;DHT22;15592;53.656;7.276;2022-12-29T10:08:56;8.90;99.90
28336;DHT22;15592;53.656;7.276;2022-12-29T10:17:23;9.00;99.90
28336;DHT22;15592;53.656;7.276;2022-12-29T10:24:43;9.00;99.90
28336;DHT22;15592;53.656;7.276;2022-12-29T10:27:11;9.00;99.90
28336;DHT22;15592;53.656;7.276;2022-12-29T10:29:43;8.90;99.90
28336;DHT22;15592;53.656;7.276;2022-12-29T10:32:32;8.90;99.90
28336;DHT22;15592;53.656;7.276;2022-12-29T10:35:05;8.90;99.90
28336;DHT22;15592;53.656;7.276;2022-12-29T10:37:47;8.80;99.90
28336;DHT22;15592;53.656;7.276;2022-12-29T10:40:19;8.80;99.90
28336;DHT22;15592;53.656;7.276;2022-12-29T10:42:52;8.80;99.90
28336;DHT22;15592;53.656;7.276;2022-12-29T10:45:19;8.70;99.90
28336;DHT22;15592;53.656;7.276;2022-12-29T10:48:01;8.80;99.90
28336;DHT22;15592;53.656;7.276;2022-12-29T10:50:28;8.70;99.90
28336;DHT22;15592;53.656;7.276;2022-12-29T10:52:57;8.70;99.90
28336;DHT22;15592;53.656;7.276;2022-12-29T10:55:35;8.70;99.90
28336;DHT22;15592;53.656;7.276;2022-12-29T10:58:04;8.70;99.90
28336;DHT22;15592;53.656;7.276;2022-12-29T11:00:31;8.70;99.90
28336;DHT22;15592;53.656;7.276;2022-12-29T11:08:25;8.60;99.90
28336;DHT22;15592;53.656;7.276;2022-12-29T11:11:05;8.60;99.90
28336;DHT22;15592;53.656;7.276;2022-12-29T11:13:34;8.60;99.90
28336;DHT22;15592;53.656;7.276;2022-12-29T11:16:01;8.60;99.90
28336;DHT22;15592;53.656;7.276;2022-12-29T11:18:36;8.60;99.90
28336;DHT22;15592;53.656;7.276;2022-12-29T11:21:05;8.60;99.90
28336;DHT22;15592;53.656;7.276;2022-12-29T11:23:40;8.60;99.90
28336;DHT22;15592;53.656;7.276;2022-12-29T11:28:41;8.60;99.90
28336;DHT22;15592;53.656;7.276;2022-12-29T11:31:08;8.60;99.90
28336;DHT22;15592;53.656;7.276;2022-12-29T11:33:36;8.60;99.90
28336;DHT22;15592;53.656;7.276;2022-12-29T11:36:16;8.60;99.90
28336;DHT22;15592;53.656;7.276;2022-12-29T11:38:46;8.60;99.90
28336;DHT22;15592;53.656;7.276;2022-12-29T11:41:13;8.60;99.90
28336;DHT22;15592;53.656;7.276;2022-12-29T11:43:45;8.60;99.90
28336;DHT22;15592;53.656;7.276;2022-12-29T11:46:51;8.60;99.90
28336;DHT22;15592;53.656;7.276;2022-12-29T11:49:13;8.60;99.90
28336;DHT22;15592;53.656;7.276;2022-12-29T11:51:46;8.60;99.90
28336;DHT22;15592;53.656;7.276;2022-12-29T11:54:19;8.60;99.90
28336;DHT22;15592;53.656;7.276;2022-12-29T11:56:48;8.60;99.90
28336;DHT22;15592;53.656;7.276;2022-12-29T12:04:40;8.60;99.90
28336;DHT22;15592;53.656;7.276;2022-12-29T12:07:16;8.60;99.90
28336;DHT22;15592;53.656;7.276;2022-12-29T12:09:53;8.70;99.90
28336;DHT22;15592;53.656;7.276;2022-12-29T12:12:38;8.70;99.90
28336;DHT22;15592;53.656;7.276;2022-12-29T12:15:05;8.70;99.90
28336;DHT22;15592;53.656;7.276;2022-12-29T12:17:51;8.70;99.90
28336;DHT22;15592;53.656;7.276;2022-12-29T12:23:26;8.80;99.90
28336;DHT22;15592;53.656;7.276;2022-12-29T12:25:57;8.80;99.90
28336;DHT22;15592;53.656;7.276;2022-12-29T12:34:02;8.80;99.90
28336;DHT22;15592;53.656;7.276;2022-12-29T12:37:03;8.80;99.90
28336;DHT22;15592;53.656;7.276;2022-12-29T12:42:22;8.80;99.90
28336;DHT22;15592;53.656;7.276;2022-12-29T12:55:55;8.70;99.90
28336;DHT22;15592;53.656;7.276;2022-12-29T12:58:48;8.70;99.90
28336;DHT22;15592;53.656;7.276;2022-12-29T13:04:08;8.80;99.90
28336;DHT22;15592;53.656;7.276;2022-12-29T13:06:51;8.70;99.90
28336;DHT22;15592;53.656;7.276;2022-12-29T13:15:11;8.70;99.90
28336;DHT22;15592;53.656;7.276;2022-12-29T13:17:44;8.70;99.90
28336;DHT22;15592;53.656;7.276;2022-12-29T13:23:08;8.50;99.90
28336;DHT22;15592;53.656;7.276;2022-12-29T13:25:47;8.50;99.90
28336;DHT22;15592;53.656;7.276;2022-12-29T13:29:03;8.50;99.90
28336;DHT22;15592;53.656;7.276;2022-12-29T13:34:15;8.50;99.90
28336;DHT22;15592;53.656;7.276;2022-12-29T13:36:56;8.40;99.90
28336;DHT22;15592;53.656;7.276;2022-12-29T13:39:38;8.40;99.90
28336;DHT22;15592;53.656;7.276;2022-12-29T13:42:05;8.40;99.90
28336;DHT22;15592;53.656;7.276;2022-12-29T13:44:38;8.40;99.90
28336;DHT22;15592;53.656;7.276;2022-12-29T13:49:52;8.40;99.90
28336;DHT22;15592;53.656;7.276;2022-12-29T13:54:56;8.30;99.90
28336;DHT22;15592;53.656;7.276;2022-12-29T13:58:03;8.30;99.90
28336;DHT22;15592;53.656;7.276;2022-12-29T14:00:40;8.30;99.90
28336;DHT22;15592;53.656;7.276;2022-12-29T14:03:57;8.30;99.90
28336;DHT22;15592;53.656;7.276;2022-12-29T14:08:50;8.30;99.90
28336;DHT22;15592;53.656;7.276;2022-12-29T14:11:20;8.30;99.90
28336;DHT22;15592;53.656;7.276;2022-12-29T14:13:46;8.30;99.90
28336;DHT22;15592;53.656;7.276;2022-12-29T14:16:32;8.30;99.90
28336;DHT22;15592;53.656;7.276;2022-12-29T14:19:13;8.30;99.90
28336;DHT22;15592;53.656;7.276;2022-12-29T14:21:40;8.30;99.90
28336;DHT22;15592;53.656;7.276;2022-12-29T14:24:37;8.30;99.90
28336;DHT22;15592;53.656;7.276;2022-12-29T14:34:59;8.10;99.90
28336;DHT22;15592;53.656;7.276;2022-12-29T14:37:30;8.10;99.90
28336;DHT22;15592;53.656;7.276;2022-12-29T14:40:23;8.20;99.90
28336;DHT22;15592;53.656;7.276;2022-12-29T14:42:51;8.20;99.90
28336;DHT22;15592;53.656;7.276;2022-12-29T14:47:49;8.10;99.90
28336;DHT22;15592;53.656;7.276;2022-12-29T14:50:18;8.00;99.90
28336;DHT22;15592;53.656;7.276;2022-12-29T14:52:57;8.00;99.90
28336;DHT22;15592;53.656;7.276;2022-12-29T14:55:41;8.00;99.90
28336;DHT22;15592;53.656;7.276;2022-12-29T14:58:29;7.90;99.90
28336;DHT22;15592;53.656;7.276;2022-12-29T15:00:56;7.90;99.90
28336;DHT22;15592;53.656;7.276;2022-12-29T15:03:32;7.90;99.90
28336;DHT22;15592;53.656;7.276;2022-12-29T15:08:37;7.90;99.90
28336;DHT22;15592;53.656;7.276;2022-12-29T15:11:13;7.90;99.90
28336;DHT22;15592;53.656;7.276;2022-12-29T15:13:41;7.90;99.90
28336;DHT22;15592;53.656;7.276;2022-12-29T15:16:30;7.90;99.90
28336;DHT22;15592;53.656;7.276;2022-12-29T15:19:01;7.90;99.90
28336;DHT22;15592;53.656;7.276;2022-12-29T15:21:31;8.00;99.90
28336;DHT22;15592;53.656;7.276;2022-12-29T15:23:57;8.00;99.90
28336;DHT22;15592;53.656;7.276;2022-12-29T15:26:23;8.00;99.90
28336;DHT22;15592;53.656;7.276;2022-12-29T15:29:01;8.00;99.90
28336;DHT22;15592;53.656;7.276;2022-12-29T15:31:26;8.10;99.90
28336;DHT22;15592;53.656;7.276;2022-12-29T15:34:01;8.10;99.90
28336;DHT22;15592;53.656;7.276;2022-12-29T15:36:28;8.10;99.90
28336;DHT22;15592;53.656;7.276;2022-12-29T15:38:55;8.00;99.90
28336;DHT22;15592;53.656;7.276;2022-12-29T15:44:24;8.00;99.90
28336;DHT22;15592;53.656;7.276;2022-12-29T15:46:51;7.90;99.90
28336;DHT22;15592;53.656;7.276;2022-12-29T15:49:17;7.90;99.90
28336;DHT22;15592;53.656;7.276;2022-12-29T15:51:43;7.90;99.90
28336;DHT22;15592;53.656;7.276;2022-12-29T15:54:17;7.90;99.90
28336;DHT22;15592;53.656;7.276;2022-12-29T15:56:44;7.90;99.90
28336;DHT22;15592;53.656;7.276;2022-12-29T15:59:31;7.90;99.90
28336;DHT22;15592;53.656;7.276;2022-12-29T16:01:59;8.00;99.90
28336;DHT22;15592;53.656;7.276;2022-12-29T16:04:30;8.10;99.90
28336;DHT22;15592;53.656;7.276;2022-12-29T16:07:03;8.10;99.90
28336;DHT22;15592;53.656;7.276;2022-12-29T16:09:42;8.10;99.90
28336;DHT22;15592;53.656;7.276;2022-12-29T16:12:19;8.00;99.90
28336;DHT22;15592;53.656;7.276;2022-12-29T16:14:49;8.00;99.90
28336;DHT22;15592;53.656;7.276;2022-12-29T16:17:19;7.90;99.90
28336;DHT22;15592;53.656;7.276;2022-12-29T16:20:05;7.90;99.90
28336;DHT22;15592;53.656;7.276;2022-12-29T16:22:42;7.80;99.90
28336;DHT22;15592;53.656;7.276;2022-12-29T16:25:19;7.80;99.90
28336;DHT22;15592;53.656;7.276;2022-12-29T16:27:46;7.80;99.90
28336;DHT22;15592;53.656;7.276;2022-12-29T16:30:23;7.80;99.90
28336;DHT22;15592;53.656;7.276;2022-12-29T16:32:52;7.70;99.90
28336;DHT22;15592;53.656;7.276;2022-12-29T16:35:21;7.70;99.90
28336;DHT22;15592;53.656;7.276;2022-12-29T16:37:49;7.80;99.90
28336;DHT22;15592;53.656;7.276;2022-12-29T16:40:31;7.70;99.90
28336;DHT22;15592;53.656;7.276;2022-12-29T16:42:59;7.80;99.90
28336;DHT22;15592;53.656;7.276;2022-12-29T16:50:43;7.80;99.90
28336;DHT22;15592;53.656;7.276;2022-12-29T16:53:28;7.80;99.90
28336;DHT22;15592;53.656;7.276;2022-12-29T16:55:55;7.80;99.90
28336;DHT22;15592;53.656;7.276;2022-12-29T16:58:25;7.80;99.90
28336;DHT22;15592;53.656;7.276;2022-12-29T17:00:56;7.80;99.90
28336;DHT22;15592;53.656;7.276;2022-12-29T17:03:22;7.80;99.90
28336;DHT22;15592;53.656;7.276;2022-12-29T17:05:50;7.90;99.90
28336;DHT22;15592;53.656;7.276;2022-12-29T17:08:22;7.90;99.90
28336;DHT22;15592;53.656;7.276;2022-12-29T17:10:53;7.90;99.90
28336;DHT22;15592;53.656;7.276;2022-12-29T17:13:38;7.90;99.90
28336;DHT22;15592;53.656;7.276;2022-12-29T17:16:05;7.90;99.90
28336;DHT22;15592;53.656;7.276;2022-12-29T17:18:35;7.90;99.90
28336;DHT22;15592;53.656;7.276;2022-12-29T17:21:00;7.90;99.90
28336;DHT22;15592;53.656;7.276;2022-12-29T17:23:26;7.80;99.90
28336;DHT22;15592;53.656;7.276;2022-12-29T17:25:53;7.80;99.90
28336;DHT22;15592;53.656;7.276;2022-12-29T17:28:27;7.70;99.90
28336;DHT22;15592;53.656;7.276;2022-12-29T17:30:57;7.80;99.90
28336;DHT22;15592;53.656;7.276;2022-12-29T17:33:23;7.70;99.90
28336;DHT22;15592;53.656;7.276;2022-12-29T17:35:49;7.70;99.90
28336;DHT22;15592;53.656;7.276;2022-12-29T17:38:18;7.70;99.90
28336;DHT22;15592;53.656;7.276;2022-12-29T17:40:47;7.60;99.90
28336;DHT22;15592;53.656;7.276;2022-12-29T17:43:16;7.50;99.90
28336;DHT22;15592;53.656;7.276;2022-12-29T17:45:43;7.50;99.90
28336;DHT22;15592;53.656;7.276;2022-12-29T17:48:12;7.40;99.90
28336;DHT22;15592;53.656;7.276;2022-12-29T17:50:38;7.40;99.90
28336;DHT22;15592;53.656;7.276;2022-12-29T17:53:06;7.40;99.90
28336;DHT22;15592;53.656;7.276;2022-12-29T17:55:33;7.40;99.90
28336;DHT22;15592;53.656;7.276;2022-12-29T17:57:58;7.40;99.90
28336;DHT22;15592;53.656;7.276;2022-12-29T18:00:27;7.40;99.90
28336;DHT22;15592;53.656;7.276;2022-12-29T18:02:53;7.40;99.90
28336;DHT22;15592;53.656;7.276;2022-12-29T18:05:23;7.40;99.90
28336;DHT22;15592;53.656;7.276;2022-12-29T18:07:54;7.30;99.90
28336;DHT22;15592;53.656;7.276;2022-12-29T18:10:21;7.40;99.90
28336;DHT22;15592;53.656;7.276;2022-12-29T18:12:49;7.40;99.90
28336;DHT22;15592;53.656;7.276;2022-12-29T18:15:27;7.40;99.90
28336;DHT22;15592;53.656;7.276;2022-12-29T18:18:01;7.40;99.90
28336;DHT22;15592;53.656;7.276;2022-12-29T18:20:28;7.40;99.90
28336;DHT22;15592;53.656;7.276;2022-12-29T18:22:55;7.40;99.90
28336;DHT22;15592;53.656;7.276;2022-12-29T18:28:11;7.40;99.90
28336;DHT22;15592;53.656;7.276;2022-12-29T18:30:37;7.40;99.90
28336;DHT22;15592;53.656;7.276;2022-12-29T18:33:02;7.50;99.90
28336;DHT22;15592;53.656;7.276;2022-12-29T18:35:37;7.50;99.90